This is the latest recevied weather packets stored in our database for station/object YO8RIX. If no packets are shown the sender has not sent any weather packets the latest 10 day(s).
| Time | Temp. | Humidity | Pressure | Rain* | Wind** | Luminosity | Snow |
|---|---|---|---|---|---|---|---|
| 1777263327 | 1.11° C | 76% | 1025.2 hPa | 0 mm | - | 52 W/m² | - |
| 1777259725 | -0.56° C | 80% | 1024.6 hPa | 0 mm | - | 5 W/m² | - |
| 1777256726 | 0.56° C | 76% | 1024.3 hPa | 0 mm | - | 0 W/m² | - |
| 1777255518 | 0° C | 78% | 1024.4 hPa | 0 mm | - | 0 W/m² | - |
| 1777247124 | 2.22° C | 73% | 1023.8 hPa | 0 mm | - | 0 W/m² | - |
| 1777241730 | 3.33° C | 68% | 1023.3 hPa | 0 mm | - | 0 W/m² | - |
| 1777241126 | 3.33° C | 68% | 1023.4 hPa | 0 mm | - | 0 W/m² | - |
| 1777236340 | 5° C | 60% | 1022.6 hPa | 0 mm | - | 0 W/m² | - |
| 1777234523 | 5.56° C | 58% | 1022.5 hPa | 0 mm | - | 0 W/m² | - |
| 1777220133 | 10° C | 39% | 1016.2 hPa | 0 mm | - | 31 W/m² | - |
| 1777217717 | 10.56° C | 36% | 1015.6 hPa | 0 mm | - | 37 W/m² | - |
| 1777217133 | 11.11° C | 37% | 1015.6 hPa | 0 mm | - | 62 W/m² | - |
| 1777214134 | 11.11° C | 37% | 1015 hPa | 0 mm | - | 73 W/m² | - |
| 1777212322 | 11.11° C | 41% | 1014.8 hPa | 0 mm | - | 211 W/m² | - |
| 1777206324 | 11.11° C | 36% | 1013.7 hPa | 0 mm | - | 384 W/m² | - |
| 1777202763 | 11.67° C | 42% | 1012.8 hPa | 0 mm | - | 233 W/m² | - |
| 1777200347 | 10° C | 47% | 1012.4 hPa | 0 mm | - | 183 W/m² | - |
| 1777199120 | 10° C | 57% | 1012 hPa | 0 mm | - | 125 W/m² | - |
| 1777191933 | 7.22° C | 76% | 1010.8 hPa | 0.76 mm | - | 76 W/m² | - |
| 1777191370 | 7.22° C | 78% | 1010.7 hPa | 0.76 mm | - | 125 W/m² | - |
| 1777188934 | 8.33° C | 83% | 1009.6 hPa | 0.51 mm | - | 73 W/m² | - |
| 1777187727 | 14.44° C | 55% | 1007.2 hPa | 0 mm | - | 46 W/m² | - |
| 1777183540 | 18.33° C | 47% | 1005.6 hPa | 0 mm | - | 250 W/m² | - |
| 1777182332 | 17.22° C | 48% | 1005.7 hPa | 0 mm | - | 202 W/m² | - |
| 1777181125 | 16.67° C | 51% | 1005.6 hPa | 0 mm | - | 164 W/m² | - |
* Rain latest hour (hover to see other rain measurements)
** Current wind speed in m/s (hover to see current wind gust speed)